Sagres — CTEC — position and weather

sailwx.info

Track history (hours):
 
Tides and Currents Weather Stations Pressure Air Temp Water Temp Dewpoint Dewpoint Depression Visibility Wind Speed Wind Dir Waves Ship Positions

Sagres (Portugal)

Last reported at 2020-Mar-25 20:31 UTC. Time now 2020-Apr-02 03:41 UTC.
Position S 33°32' E 018°02'.

Length 90 m; draft 5.5 m.

Type: Sailing vessel. MMSI: 263141000.

Date/timePositionNaut miles runAvg speedWind from/ knotsBaromVisibWave heightAir tempDewpointWater temp
2020-Mar-25 20:31S 33°32' E 018°02'30 6.1
2020-Mar-25 15:29S 33°55' E 018°26'0 0.0
2020-Mar-25 13:29S 33°55' E 018°26'0 0.0
2020-Mar-25 12:59S 33°55' E 018°26'0 0.0
2020-Mar-25 10:29S 33°55' E 018°26'0 0.0
2020-Mar-25 08:29S 33°55' E 018°26'0 0.0
2020-Mar-25 07:59S 33°55' E 018°26'9 3.7
2020-Mar-25 05:30S 33°59' E 018°16'6 1.2
2020-Mar-25 00:50S 34°02' E 018°11'1 3.7
2020-Mar-25 00:28S 34°01' E 018°11'6 3.5
2020-Mar-24 22:46S 33°58' E 018°05'6 5.0
2020-Mar-24 21:29S 34°00' E 017°58'  
Track history (hours):
 
Tides and Currents Weather Stations Pressure Air Temp Water Temp Dewpoint Dewpoint Depression Visibility Wind Speed Wind Dir Waves Ship Positions

Sagres (Portugal)

Last reported at 2020-Mar-25 20:31 UTC. Time now 2020-Apr-02 03:41 UTC.
Position S 33°32' E 018°02'.

Length 90 m; draft 5.5 m.

Type: Sailing vessel. MMSI: 263141000.

Date/timePositionNaut miles runAvg speedWind from/ knotsBaromVisibWave heightAir tempDewpointWater temp
2020-Mar-25 20:31S 33°32' E 018°02'30 6.1
2020-Mar-25 15:29S 33°55' E 018°26'0 0.0
2020-Mar-25 13:29S 33°55' E 018°26'0 0.0
2020-Mar-25 12:59S 33°55' E 018°26'0 0.0
2020-Mar-25 10:29S 33°55' E 018°26'0 0.0
2020-Mar-25 08:29S 33°55' E 018°26'0 0.0
2020-Mar-25 07:59S 33°55' E 018°26'9 3.7
2020-Mar-25 05:30S 33°59' E 018°16'6 1.2
2020-Mar-25 00:50S 34°02' E 018°11'1 3.7
2020-Mar-25 00:28S 34°01' E 018°11'6 3.5
2020-Mar-24 22:46S 33°58' E 018°05'6 5.0
2020-Mar-24 21:29S 34°00' E 017°58'  

Dump ship's entire track history